Time;durP1;ratioP1;P1;durP2;ratioP2;P2;SDS_P1;SDS_P2;PMS_P1;PMS_P2;Temp;Humidity;BMP_temperature;BMP_pressure;BME280_temperature;BME280_humidity;BME280_pressure;Samples;Min_cycle;Max_cycle;Signal;HPM_P1;HPM_P2
2021/08/19 00:01:05;;;;;;;0.90;0.87;;;22.20;99.90;;;;;;20701036;28;20219;-79
2021/08/19 00:11:09;;;;;;;0.63;0.63;;;22.20;99.90;;;;;;20701493;28;20691;-84
2021/08/19 00:21:15;;;;;;;3.43;1.80;;;22.00;99.90;;;;;;20695845;28;20237;-85
2021/08/19 00:31:20;;;;;;;1.93;1.23;;;22.00;99.90;;;;;;20698562;28;20210;-86
2021/08/19 00:41:29;;;;;;;3.20;1.40;;;21.90;99.90;;;;;;20666430;28;20231;-85
2021/08/19 00:51:34;;;;;;;1.40;1.00;;;21.90;99.90;;;;;;20688270;28;20199;-83
2021/08/19 01:01:40;;;;;;;0.50;0.50;;;21.90;99.90;;;;;;20703623;28;20219;-83
2021/08/19 01:11:46;;;;;;;2.17;1.37;;;21.80;99.90;;;;;;20701594;28;20742;-79
2021/08/19 01:21:55;;;;;;;2.33;2.13;;;21.70;99.90;;;;;;20712940;28;20691;-90
2021/08/19 01:32:02;;;;;;;5.60;2.00;;;21.50;99.90;;;;;;20763408;28;23156;-85
2021/08/19 01:42:07;;;;;;;1.50;1.37;;;21.50;99.90;;;;;;20724968;28;20877;-86
2021/08/19 01:52:12;;;;;;;1.60;0.90;;;21.40;99.90;;;;;;20699201;28;20276;-82
2021/08/19 02:02:16;;;;;;;0.97;0.50;;;21.50;99.90;;;;;;20712454;28;20337;-82
2021/08/19 02:12:21;;;;;;;7.00;1.43;;;21.70;99.90;;;;;;20739022;28;20310;-92
2021/08/19 02:22:25;;;;;;;1.43;1.17;;;21.60;99.90;;;;;;20743086;28;20222;-86
2021/08/19 02:32:33;;;;;;;8.50;2.37;;;21.50;99.90;;;;;;20709845;28;20210;-88
2021/08/19 02:42:36;;;;;;;1.13;0.67;;;21.50;99.90;;;;;;20704293;28;20218;-86
2021/08/19 02:52:41;;;;;;;1.00;0.80;;;21.40;99.90;;;;;;20711162;28;20214;-86
2021/08/19 03:02:45;;;;;;;2.23;1.00;;;21.40;99.90;;;;;;20702771;28;20326;-85
2021/08/19 03:12:50;;;;;;;5.30;1.87;;;21.30;99.90;;;;;;20732691;28;20230;-90
2021/08/19 03:22:55;;;;;;;0.90;0.60;;;21.20;99.90;;;;;;20709030;28;20234;-89
2021/08/19 03:33:03;;;;;;;1.50;1.37;;;21.20;99.90;;;;;;20652278;28;20670;-87
2021/08/19 03:43:06;;;;;;;1.97;1.80;;;21.00;99.90;;;;;;20651579;28;20255;-89
2021/08/19 03:53:12;;;;;;;1.90;0.57;;;21.10;99.90;;;;;;20628476;28;20210;-82
2021/08/19 04:03:15;;;;;;;0.40;0.40;;;21.30;99.90;;;;;;20674408;28;20614;-84
2021/08/19 04:13:21;;;;;;;1.80;1.00;;;21.20;99.90;;;;;;20709059;28;20314;-84
2021/08/19 04:23:24;;;;;;;2.20;1.07;;;21.10;99.90;;;;;;20706646;28;20227;-84
2021/08/19 04:33:29;;;;;;;3.80;1.10;;;21.10;99.90;;;;;;20710862;28;20530;-80
2021/08/19 04:43:33;;;;;;;1.67;0.70;;;21.10;99.90;;;;;;20725559;28;20282;-88
2021/08/19 04:53:52;;;;;;;1.57;1.07;;;21.30;99.90;;;;;;20712138;28;20294;-82
2021/08/19 05:03:58;;;;;;;2.97;1.13;;;21.20;99.90;;;;;;20705546;28;20243;-85
2021/08/19 05:14:04;;;;;;;1.27;1.00;;;21.20;99.90;;;;;;20687148;28;20334;-85
2021/08/19 05:24:08;;;;;;;0.80;0.73;;;21.00;99.90;;;;;;20714022;28;20224;-81
2021/08/19 05:34:13;;;;;;;0.20;0.20;;;21.00;99.90;;;;;;20690086;28;20194;-79
2021/08/19 05:44:17;;;;;;;1.90;1.17;;;21.00;99.90;;;;;;20711633;28;20234;-85
2021/08/19 05:54:22;;;;;;;1.27;0.70;;;21.20;99.90;;;;;;20602285;28;20254;-85
2021/08/19 06:04:26;;;;;;;0.70;0.70;;;21.50;99.90;;;;;;20688794;28;20235;-78
2021/08/19 06:14:33;;;;;;;1.07;1.07;;;21.70;99.90;;;;;;20750925;28;20222;-82
2021/08/19 06:24:37;;;;;;;3.03;0.83;;;22.20;99.90;;;;;;20744561;28;20300;-84
2021/08/19 06:34:42;;;;;;;0.37;0.30;;;22.40;99.90;;;;;;20721727;28;20198;-82
2021/08/19 06:44:45;;;;;;;4.38;1.65;;;23.00;99.90;;;;;;20722157;28;20653;-82
2021/08/19 06:54:51;;;;;;;7.43;1.67;;;23.40;99.90;;;;;;20625755;28;20207;-85
2021/08/19 07:04:57;;;;;;;0.85;0.85;;;23.90;99.90;;;;;;20681170;28;20676;-81
2021/08/19 07:15:02;;;;;;;1.90;1.30;;;24.30;99.90;;;;;;20715830;28;20233;-85
2021/08/19 07:25:07;;;;;;;1.25;1.20;;;24.50;99.90;;;;;;20690518;28;20540;-85
2021/08/19 07:35:19;;;;;;;0.95;0.73;;;24.50;99.90;;;;;;20745594;28;20235;-89
2021/08/19 07:45:26;;;;;;;1.23;1.10;;;24.60;99.90;;;;;;20740004;28;20227;-88
2021/08/19 07:55:33;;;;;;;3.67;1.85;;;24.50;99.90;;;;;;20727267;28;20257;-85
2021/08/19 08:06:03;;;;;;;3.08;1.33;;;24.60;99.90;;;;;;20635803;28;20314;-86
2021/08/19 08:16:09;;;;;;;0.50;0.50;;;25.20;99.90;;;;;;20684861;28;20342;-92
2021/08/19 08:26:13;;;;;;;1.25;1.15;;;25.40;99.90;;;;;;20693514;28;20226;-85
2021/08/19 08:36:25;;;;;;;2.25;0.88;;;25.60;99.90;;;;;;20689346;28;20202;-79
2021/08/19 08:46:36;;;;;;;3.03;2.28;;;25.50;99.90;;;;;;20682367;28;20585;-83
2021/08/19 08:56:42;;;;;;;5.28;0.82;;;25.30;99.90;;;;;;20689714;28;20656;-84
2021/08/19 09:06:47;;;;;;;2.67;1.63;;;25.40;99.90;;;;;;20684836;28;20796;-83
2021/08/19 09:16:52;;;;;;;0.90;0.85;;;25.60;99.90;;;;;;20703047;28;20226;-84
2021/08/19 09:27:13;;;;;;;1.60;0.57;;;25.70;99.90;;;;;;20704253;28;20310;-83
2021/08/19 09:37:23;;;;;;;0.55;0.55;;;25.80;99.90;;;;;;20688096;28;20222;-80
2021/08/19 09:47:35;;;;;;;3.30;1.02;;;25.80;99.90;;;;;;20688223;28;20238;-82
2021/08/19 09:57:44;;;;;;;1.90;1.20;;;26.10;99.90;;;;;;20673094;28;20259;-80
2021/08/19 10:07:48;;;;;;;3.53;2.22;;;26.60;99.90;;;;;;20695110;28;20653;-81
2021/08/19 10:17:57;;;;;;;3.25;2.85;;;27.00;99.90;;;;;;20671484;28;20397;-80
2021/08/19 10:28:15;;;;;;;8.30;1.73;;;27.60;99.90;;;;;;20706267;28;20606;-80
2021/08/19 10:38:26;;;;;;;3.67;1.63;;;27.60;99.90;;;;;;20677907;28;20190;-79
2021/08/19 10:48:48;;;;;;;1.20;1.13;;;27.80;99.90;;;;;;20704320;28;20274;-82
2021/08/19 10:58:53;;;;;;;1.40;1.30;;;28.00;99.90;;;;;;20702166;28;20278;-80
2021/08/19 11:08:58;;;;;;;1.33;0.60;;;28.30;99.90;;;;;;20764782;23;20321;-83
2021/08/19 11:19:21;;;;;;;1.25;0.55;;;27.60;99.90;;;;;;20660342;28;20214;-80
2021/08/19 11:29:29;;;;;;;1.08;0.98;;;26.60;99.90;;;;;;20693961;28;20349;-77
2021/08/19 11:39:34;;;;;;;0.50;0.40;;;26.40;99.90;;;;;;20653071;28;20214;-80
2021/08/19 11:49:37;;;;;;;0.40;0.40;;;25.80;99.90;;;;;;20633488;28;20363;-77
2021/08/19 11:59:42;;;;;;;1.58;1.02;;;25.70;99.90;;;;;;20632470;28;20184;-83
2021/08/19 12:09:46;;;;;;;0.88;0.82;;;25.50;99.90;;;;;;20693802;28;20702;-79
2021/08/19 12:20:17;;;;;;;1.85;0.95;;;25.30;99.90;;;;;;20696099;28;20202;-80
2021/08/19 12:30:22;;;;;;;7.72;1.20;;;25.40;99.90;;;;;;20696106;28;20281;-82
2021/08/19 12:40:30;;;;;;;1.27;0.63;;;25.60;99.90;;;;;;20693728;28;20214;-79
2021/08/19 12:50:34;;;;;;;0.85;0.50;;;25.60;99.90;;;;;;20693924;28;20803;-79
2021/08/19 13:00:39;;;;;;;0.52;0.52;;;25.90;99.90;;;;;;20675994;28;20855;-79
2021/08/19 13:10:43;;;;;;;0.50;0.32;;;25.60;99.90;;;;;;20697599;28;20919;-80
2021/08/19 13:20:48;;;;;;;1.20;0.60;;;25.30;99.90;;;;;;20675549;28;20555;-78
2021/08/19 13:30:54;;;;;;;0.90;0.70;;;25.10;99.90;;;;;;20678033;28;20198;-84
2021/08/19 13:40:59;;;;;;;0.85;0.77;;;25.10;99.90;;;;;;20675455;28;20243;-85
2021/08/19 13:51:04;;;;;;;0.85;0.85;;;25.00;99.90;;;;;;20629684;28;20199;-81
2021/08/19 14:01:09;;;;;;;1.65;1.30;;;28.60;99.90;;;;;;20661237;28;20337;-77
2021/08/19 14:11:13;;;;;;;0.95;0.80;;;28.90;99.90;;;;;;20689669;28;20203;-81
2021/08/19 14:21:21;;;;;;;1.13;0.70;;;27.70;99.90;;;;;;20704996;28;20229;-80
2021/08/19 14:31:25;;;;;;;0.88;0.32;;;26.60;99.90;;;;;;20679503;28;20273;-79
2021/08/19 14:41:32;;;;;;;3.40;0.90;;;26.10;99.90;;;;;;20696396;28;20218;-80
2021/08/19 14:51:35;;;;;;;0.73;0.50;;;26.00;99.90;;;;;;20678350;28;20202;-75
2021/08/19 15:01:42;;;;;;;0.73;0.65;;;25.70;99.90;;;;;;20702542;28;20766;-79
2021/08/19 15:11:45;;;;;;;0.65;0.43;;;25.60;99.90;;;;;;20698832;28;20202;-77
2021/08/19 15:21:51;;;;;;;2.38;1.10;;;25.80;99.90;;;;;;20666547;28;20226;-73
2021/08/19 15:31:55;;;;;;;0.68;0.68;;;26.20;99.90;;;;;;20695899;28;20605;-77
2021/08/19 15:42:00;;;;;;;1.00;0.73;;;27.30;99.90;;;;;;20701405;28;20571;-82
2021/08/19 15:52:04;;;;;;;6.72;1.25;;;29.00;99.90;;;;;;20854005;23;20242;-83
2021/08/19 16:02:11;;;;;;;1.23;0.77;;;28.00;99.90;;;;;;20678775;28;20460;-74
2021/08/19 16:12:15;;;;;;;2.15;1.10;;;26.60;99.90;;;;;;20699883;28;20195;-82
2021/08/19 16:22:20;;;;;;;5.80;1.83;;;26.60;99.90;;;;;;20697024;28;20752;-85
2021/08/19 16:32:24;;;;;;;1.65;1.08;;;26.70;99.90;;;;;;20692281;28;20796;-73
2021/08/19 16:42:31;;;;;;;1.08;0.55;;;26.90;99.90;;;;;;20643479;28;20273;-83
2021/08/19 16:52:37;;;;;;;3.15;1.45;;;26.80;99.90;;;;;;20685465;28;20449;-85
2021/08/19 17:02:42;;;;;;;4.72;2.38;;;26.10;99.90;;;;;;20739054;28;20222;-83
2021/08/19 17:12:47;;;;;;;3.40;1.38;;;26.20;99.90;;;;;;20765079;28;20321;-78
2021/08/19 17:22:52;;;;;;;0.98;0.88;;;26.00;99.90;;;;;;20780233;28;20228;-79
2021/08/19 17:32:57;;;;;;;3.28;1.35;;;26.10;99.90;;;;;;20768904;28;20301;-81
2021/08/19 17:43:02;;;;;;;3.33;0.93;;;26.40;99.90;;;;;;20694530;28;20234;-79
2021/08/19 17:53:06;;;;;;;0.35;0.30;;;26.80;99.90;;;;;;20695234;28;20377;-78
2021/08/19 18:03:11;;;;;;;0.50;0.45;;;26.90;99.90;;;;;;20698532;28;20281;-78
2021/08/19 18:13:15;;;;;;;9.18;0.95;;;26.10;99.90;;;;;;20765753;28;20631;-79
2021/08/19 18:23:21;;;;;;;1.00;0.90;;;25.60;99.90;;;;;;20753001;28;21082;-78
2021/08/19 18:33:25;;;;;;;1.70;0.80;;;25.20;99.90;;;;;;20758589;28;20199;-81
2021/08/19 18:43:31;;;;;;;1.02;0.77;;;25.10;99.90;;;;;;20787450;28;20229;-76
2021/08/19 18:53:35;;;;;;;1.35;0.77;;;24.80;99.90;;;;;;20777487;28;20237;-78
2021/08/19 19:03:39;;;;;;;2.20;0.68;;;24.80;99.90;;;;;;20742251;28;20621;-78
2021/08/19 19:13:43;;;;;;;1.67;0.93;;;24.80;99.90;;;;;;20778364;28;20280;-83
2021/08/19 19:23:49;;;;;;;3.92;1.15;;;24.80;99.90;;;;;;20780931;28;20213;-79
2021/08/19 19:33:53;;;;;;;1.77;1.42;;;24.80;99.90;;;;;;20759393;28;20264;-79
2021/08/19 19:43:58;;;;;;;2.65;1.48;;;24.80;99.90;;;;;;20732649;28;20761;-79
2021/08/19 19:54:02;;;;;;;0.98;0.70;;;24.60;99.90;;;;;;20734584;28;20924;-78
2021/08/19 20:04:07;;;;;;;1.48;0.88;;;24.50;99.90;;;;;;20731400;28;20302;-81
2021/08/19 20:14:11;;;;;;;10.10;1.42;;;24.60;99.90;;;;;;20734996;28;20694;-82
2021/08/19 20:24:17;;;;;;;3.60;0.73;;;24.30;99.90;;;;;;20727845;28;20230;-82
2021/08/19 20:34:20;;;;;;;2.55;0.80;;;24.20;99.90;;;;;;20731855;28;20894;-80
2021/08/19 20:44:25;;;;;;;1.90;0.85;;;24.00;99.90;;;;;;20740650;28;20219;-77
2021/08/19 20:54:29;;;;;;;3.28;0.65;;;23.70;99.90;;;;;;20724951;28;20653;-77
2021/08/19 21:04:35;;;;;;;5.95;1.30;;;23.40;99.90;;;;;;20730225;28;20214;-77
2021/08/19 21:14:38;;;;;;;1.02;0.93;;;23.20;99.90;;;;;;20707836;28;20198;-83
2021/08/19 21:24:43;;;;;;;1.13;0.95;;;23.00;99.90;;;;;;20695345;28;20227;-78
2021/08/19 21:34:49;;;;;;;1.83;1.67;;;23.10;99.90;;;;;;20768241;28;20634;-78
2021/08/19 21:44:54;;;;;;;2.58;1.10;;;23.00;99.90;;;;;;20760827;28;20231;-80
2021/08/19 21:54:59;;;;;;;2.77;0.67;;;23.00;99.90;;;;;;20749694;28;20395;-79
2021/08/19 22:05:05;;;;;;;1.15;1.10;;;22.80;99.90;;;;;;20778442;28;20580;-77
2021/08/19 22:15:11;;;;;;;0.30;0.30;;;23.10;99.90;;;;;;20704527;28;20307;-76
2021/08/19 22:25:16;;;;;;;0.77;0.73;;;22.90;99.90;;;;;;20734032;28;20233;-76
2021/08/19 22:35:20;;;;;;;1.00;0.90;;;22.70;99.90;;;;;;20732396;28;20680;-74
2021/08/19 22:45:26;;;;;;;0.20;0.20;;;22.70;99.90;;;;;;20699124;28;20390;-80
2021/08/19 22:55:29;;;;;;;1.33;0.57;;;22.60;99.90;;;;;;20698403;28;20425;-76
2021/08/19 23:05:34;;;;;;;1.83;1.00;;;22.50;99.90;;;;;;20732448;28;20252;-78
2021/08/19 23:15:38;;;;;;;13.30;1.13;;;22.40;99.90;;;;;;20697966;28;20217;-77
2021/08/19 23:25:44;;;;;;;0.57;0.57;;;22.40;99.90;;;;;;20771055;28;20215;-75
2021/08/19 23:35:48;;;;;;;0.63;0.63;;;22.40;99.90;;;;;;20766594;28;20194;-79
2021/08/19 23:45:53;;;;;;;0.57;0.57;;;22.30;99.90;;;;;;20753664;28;20966;-78
2021/08/19 23:55:56;;;;;;;0.77;0.77;;;22.20;99.90;;;;;;20760078;28;20252;-79
